Hlavní strana
METAR-TAF:

METAR-TAF

Letiště :

Dakar, Senegal

zeměpisná šířka: 14-44N, zeměpisná délka: 017-30W, výška: 27 m

Aktuální stav počasí

Zpráva byla vytvořena před 54 minutami, v 14:00 UTC
Severovýchodní vítr 10 kt
Teplota 27°C
Vlhkost vzduchu 45%
Tlak 1014 hPa
Viditelnost: 2500 m
rozsáhlý prach

METAR: GOOY 181400Z 04010KT 2500 DU NSC 27/14 Q1014

Čas: 14:54 (14:54 UTC)

Předpověď počasí

Zpráva byla vytvořena před 3 hodinami a 24 minutami, v 11:30 UTC
Předpověď platná od 18 v 12 UTC do 19 v 18 UTC
Severoseverovýchodní vítr 13 kt
Viditelnost: 4000 m
rozsáhlý prach

TAF: GOOY 181130Z 1812/1918 03013KT 4000 DU NSC

Stav a předpovědi počasí z více než 4 000 letišť (zprávy METAR a TAF).

Červené a žluté tečky na mapě představují dostupné meteorologické stanice.

Když kurzor umístíte na tečku, zobrazí se název stanice.

Pak kliknutím zobrazíte stav a předpověď počasí.

Chcete-li změnit mapu, kliknutím na zelené tlačítko se znaménkem +mapu přiblížíte, kliknutím na zelené tlačítko se znaménkem – mapu oddálíte a kliknutím na zelené šipky přejdete na sousední mapy.


METAR-TAF: